Terminal Aerodrome Forecast
Issued by NWS

Home | Current Version | Previous Version | Text Only | Print | Product List | Glossary On
Versions: 1 2 3 4 5 6 7 8 9 10 11 12 13 14 15 16 17 18 19 20 21
000
FTAK31 PANC 022341
TAFADQ
TAF
PADQ 022341Z 0300/0324 11005KT P6SM -RA SCT050 BKN100
      TEMPO 0300/0303 BKN040
     FM030400 15005KT 6SM -RA BR OVC025
      TEMPO 0304/0308 OVC015
     FM031600 VRB03KT 3SM -RA BR SCT005 BKN015=

USA.gov is the U.S. government's official web portal to all federal, state and local government web resources and services.